Time;durP1;ratioP1;P1;durP2;ratioP2;P2;SDS_P1;SDS_P2;PMS_P1;PMS_P2;Temp;Humidity;BMP_temperature;BMP_pressure;BME280_temperature;BME280_humidity;BME280_pressure;Samples;Min_cycle;Max_cycle;Signal;HPM_P1;HPM_P2
2022/01/05 00:01:47;;;;;;;17.00;12.27;;;;;;;-140.79;100.00;63287.88;5025185;28;20029;-52
2022/01/05 00:04:12;;;;;;;17.40;12.63;;;;;;;-140.79;100.00;63287.88;5024767;28;20060;-52
2022/01/05 00:06:38;;;;;;;16.33;12.35;;;;;;;-140.79;100.00;63287.88;5025418;28;20447;-53
2022/01/05 00:09:03;;;;;;;16.17;11.90;;;;;;;-140.79;100.00;63287.88;5025364;28;20036;-53
2022/01/05 00:11:29;;;;;;;17.08;12.20;;;;;;;-140.79;100.00;63287.88;5023928;28;20045;-53
2022/01/05 00:13:56;;;;;;;15.80;12.70;;;;;;;-140.79;100.00;63287.88;5024793;28;20041;-53
2022/01/05 00:16:21;;;;;;;17.02;12.70;;;;;;;-140.79;100.00;63287.88;5024788;28;20088;-53
2022/01/05 00:18:47;;;;;;;15.75;12.38;;;;;;;-140.79;100.00;63287.88;5025181;28;20526;-51
2022/01/05 00:21:12;;;;;;;15.05;12.07;;;;;;;-140.79;100.00;63287.88;5024930;28;20033;-53
2022/01/05 00:23:38;;;;;;;17.67;13.07;;;;;;;-140.79;100.00;63287.88;5024602;28;20045;-53
2022/01/05 00:26:04;;;;;;;16.15;12.50;;;;;;;-140.79;100.00;63287.88;5025004;28;20033;-53
2022/01/05 00:28:30;;;;;;;17.20;12.23;;;;;;;-140.79;100.00;63287.88;5025076;28;20672;-52
2022/01/05 00:30:55;;;;;;;16.02;12.27;;;;;;;-140.79;100.00;63287.88;5024906;28;20033;-52
2022/01/05 00:33:21;;;;;;;16.35;12.85;;;;;;;-140.79;100.00;63287.88;5024550;28;20022;-53
2022/01/05 00:35:46;;;;;;;17.05;12.50;;;;;;;-140.79;100.00;63287.88;5024897;28;20480;-53
2022/01/05 00:38:11;;;;;;;17.00;13.23;;;;;;;-140.79;100.00;63287.88;5024285;28;20037;-52
2022/01/05 00:40:37;;;;;;;17.08;12.60;;;;;;;-140.79;100.00;63287.88;5024710;28;20036;-53
2022/01/05 00:43:02;;;;;;;15.65;12.38;;;;;;;-140.79;100.00;63287.88;5024384;28;20037;-53
2022/01/05 00:45:28;;;;;;;16.65;12.40;;;;;;;-140.79;100.00;63287.88;5039421;28;20037;-53
2022/01/05 00:47:53;;;;;;;16.70;12.00;;;;;;;-140.79;100.00;63287.88;5024338;28;20025;-53
2022/01/05 00:50:19;;;;;;;15.20;12.02;;;;;;;-140.79;100.00;63287.88;5024141;28;20032;-54
2022/01/05 00:52:44;;;;;;;16.20;12.55;;;;;;;-140.79;100.00;63287.88;5024196;28;20040;-53
2022/01/05 00:55:09;;;;;;;16.15;12.45;;;;;;;-140.79;100.00;63287.88;5024423;28;20045;-53
2022/01/05 00:57:35;;;;;;;15.68;11.77;;;;;;;-140.79;100.00;63287.88;5024262;28;20033;-52
2022/01/05 01:00:01;;;;;;;17.00;12.27;;;;;;;-140.79;100.00;63287.88;5024067;28;20542;-53
2022/01/05 01:02:26;;;;;;;16.00;12.55;;;;;;;-140.79;100.00;63287.88;5024084;28;20029;-53
2022/01/05 01:04:52;;;;;;;16.58;12.57;;;;;;;-140.79;100.00;63287.88;5024650;28;20040;-53
2022/01/05 01:07:17;;;;;;;17.40;12.90;;;;;;;-140.79;100.00;63287.88;5023795;28;20091;-51
2022/01/05 01:09:43;;;;;;;17.45;12.75;;;;;;;-140.79;100.00;63287.88;5024301;28;20033;-52
2022/01/05 01:12:09;;;;;;;15.70;11.90;;;;;;;-140.79;100.00;63287.88;5023965;28;20040;-53
2022/01/05 01:14:34;;;;;;;16.05;12.82;;;;;;;-140.79;100.00;63287.88;5023635;28;20134;-53
2022/01/05 01:17:00;;;;;;;15.45;12.43;;;;;;;-140.79;100.00;63287.88;5022773;28;20037;-53
2022/01/05 01:19:25;;;;;;;16.13;12.00;;;;;;;-140.79;100.00;63287.88;5024479;28;20491;-53
2022/01/05 01:21:51;;;;;;;15.32;11.90;;;;;;;-140.79;100.00;63287.88;5023788;28;20478;-53
2022/01/05 01:24:16;;;;;;;18.65;12.27;;;;;;;-140.79;100.00;63287.88;5023672;28;20080;-52
2022/01/05 01:26:42;;;;;;;16.85;12.38;;;;;;;-140.79;100.00;63287.88;5024150;28;20025;-52
2022/01/05 01:29:07;;;;;;;16.08;11.88;;;;;;;-140.79;100.00;63287.88;5024190;28;20036;-52
2022/01/05 01:31:32;;;;;;;14.75;11.52;;;;;;;-140.79;100.00;63287.88;5023750;28;20037;-53
2022/01/05 01:33:58;;;;;;;15.27;12.02;;;;;;;-140.79;100.00;63287.88;5023547;28;20045;-53
2022/01/05 01:36:23;;;;;;;15.02;11.63;;;;;;;-140.79;100.00;63287.88;5023817;28;20040;-53
2022/01/05 01:38:49;;;;;;;17.13;12.32;;;;;;;-140.79;100.00;63287.88;5024175;28;20052;-53
2022/01/05 01:41:14;;;;;;;15.68;12.02;;;;;;;-140.79;100.00;63287.88;5023868;28;20073;-53
2022/01/05 01:43:40;;;;;;;15.73;12.15;;;;;;;-140.79;100.00;63287.88;5023575;28;20038;-53
2022/01/05 01:46:05;;;;;;;17.00;12.32;;;;;;;-140.79;100.00;63287.88;5023796;28;20037;-53
2022/01/05 01:48:31;;;;;;;17.13;12.45;;;;;;;-140.79;100.00;63287.88;5021998;28;20025;-53
2022/01/05 01:50:57;;;;;;;15.23;11.65;;;;;;;-140.79;100.00;63287.88;5023887;28;20033;-52
2022/01/05 01:53:22;;;;;;;14.88;12.07;;;;;;;-140.79;100.00;63287.88;5018813;28;20103;-53
2022/01/05 01:55:48;;;;;;;15.32;11.60;;;;;;;-140.79;100.00;63287.88;5017647;28;20029;-52
2022/01/05 01:58:14;;;;;;;15.85;11.98;;;;;;;-140.79;100.00;63287.88;5023344;28;20033;-53
2022/01/05 02:00:39;;;;;;;16.27;11.65;;;;;;;-140.79;100.00;63287.88;5023762;28;20032;-53
2022/01/05 02:03:04;;;;;;;15.10;11.32;;;;;;;-140.79;100.00;63287.88;5023466;28;20029;-53
2022/01/05 02:05:30;;;;;;;15.18;12.18;;;;;;;-140.79;100.00;63287.88;5023233;28;20041;-52
2022/01/05 02:07:55;;;;;;;14.95;11.63;;;;;;;-140.79;100.00;63287.88;5023855;28;20550;-53
2022/01/05 02:10:21;;;;;;;14.43;11.70;;;;;;;-140.79;100.00;63287.88;5023409;28;20480;-52
2022/01/05 02:12:47;;;;;;;16.63;12.40;;;;;;;-140.79;100.00;63287.88;5023404;28;20029;-53
2022/01/05 02:15:12;;;;;;;14.93;11.52;;;;;;;-140.79;100.00;63287.88;5022230;28;20029;-51
2022/01/05 02:17:52;;;;;;;15.43;11.98;;;;;;;-140.79;100.00;63287.88;5023991;28;20037;-53
2022/01/05 02:20:23;;;;;;;16.05;11.85;;;;;;;-140.79;100.00;63287.88;5027174;28;20022;-53
2022/01/05 02:22:48;;;;;;;15.40;12.02;;;;;;;-140.79;100.00;63287.88;5025526;28;20041;-53
2022/01/05 02:25:14;;;;;;;15.80;11.52;;;;;;;-140.79;100.00;63287.88;5027134;28;20043;-53
2022/01/05 02:27:44;;;;;;;14.80;11.27;;;;;;;-140.79;100.00;63287.88;5027009;28;20048;-53
2022/01/05 02:30:10;;;;;;;15.35;11.52;;;;;;;-140.79;100.00;63287.88;5027152;28;20577;-53
2022/01/05 02:32:36;;;;;;;15.02;11.07;;;;;;;-140.79;100.00;63287.88;5010700;28;20022;-53
2022/01/05 02:35:02;;;;;;;15.15;10.80;;;;;;;-140.79;100.00;63287.88;5025341;28;20872;-54
2022/01/05 02:37:27;;;;;;;15.30;11.65;;;;;;;-140.79;100.00;63287.88;5027099;28;20044;-54
2022/01/05 02:39:52;;;;;;;16.90;11.77;;;;;;;-140.79;100.00;63287.88;5026819;28;20112;-53
2022/01/05 02:42:30;;;;;;;14.43;10.98;;;;;;;-140.79;100.00;63287.88;5026317;28;20044;-54
2022/01/05 02:44:56;;;;;;;14.13;11.23;;;;;;;-140.79;100.00;63287.88;5026451;28;20099;-53
2022/01/05 02:47:21;;;;;;;16.27;11.75;;;;;;;-140.79;100.00;63287.88;5026729;28;20041;-53
2022/01/05 02:49:47;;;;;;;15.23;10.85;;;;;;;-140.79;100.00;63287.88;5026748;28;20042;-54
2022/01/05 02:52:13;;;;;;;14.60;11.05;;;;;;;-140.79;100.00;63287.88;5026380;28;20036;-52
2022/01/05 02:54:38;;;;;;;13.75;10.80;;;;;;;-140.79;100.00;63287.88;5026438;28;20048;-52
2022/01/05 02:57:04;;;;;;;14.80;11.18;;;;;;;-140.79;100.00;63287.88;5026738;28;20056;-53
2022/01/05 02:59:29;;;;;;;14.55;11.48;;;;;;;-140.79;100.00;63287.88;5041780;28;20028;-54
2022/01/05 03:01:55;;;;;;;14.30;11.48;;;;;;;-140.79;100.00;63287.88;5026336;28;20432;-52
2022/01/05 03:04:20;;;;;;;15.27;11.75;;;;;;;-140.79;100.00;63287.88;5025973;28;20026;-54
2022/01/05 03:06:46;;;;;;;13.70;10.90;;;;;;;-140.79;100.00;63287.88;5026287;28;20500;-53
2022/01/05 03:09:11;;;;;;;15.05;11.15;;;;;;;-140.79;100.00;63287.88;5026306;28;20022;-53
2022/01/05 03:11:37;;;;;;;13.07;10.52;;;;;;;-140.79;100.00;63287.88;5026493;28;20530;-53
2022/01/05 03:14:02;;;;;;;14.00;10.77;;;;;;;-140.79;100.00;63287.88;5026448;28;20029;-54
2022/01/05 03:16:28;;;;;;;14.43;11.27;;;;;;;-140.79;100.00;63287.88;5026249;28;20033;-55
2022/01/05 03:18:53;;;;;;;13.13;10.48;;;;;;;-140.79;100.00;63287.88;5026396;28;20018;-53
2022/01/05 03:21:18;;;;;;;13.75;10.77;;;;;;;-140.79;100.00;63287.88;5026331;28;20045;-54
2022/01/05 03:23:46;;;;;;;14.43;10.88;;;;;;;-140.79;100.00;63287.88;5025935;28;20056;-54
2022/01/05 03:26:12;;;;;;;13.02;10.40;;;;;;;-140.79;100.00;63287.88;5026198;28;20133;-55
2022/01/05 03:28:38;;;;;;;15.30;11.10;;;;;;;-140.79;100.00;63287.88;5026238;28;20052;-54
2022/01/05 03:31:03;;;;;;;15.68;11.48;;;;;;;-140.79;100.00;63287.88;5040430;28;21312;-52
2022/01/05 03:33:29;;;;;;;14.05;10.80;;;;;;;-140.79;100.00;63287.88;5025707;28;20041;-54
2022/01/05 03:35:54;;;;;;;14.63;10.82;;;;;;;-140.79;100.00;63287.88;5024115;28;20037;-55
2022/01/05 03:38:20;;;;;;;14.38;10.40;;;;;;;-140.79;100.00;63287.88;5025442;28;20072;-54
2022/01/05 03:40:46;;;;;;;14.07;10.52;;;;;;;-140.79;100.00;63287.88;5026380;28;20488;-54
2022/01/05 03:43:12;;;;;;;12.88;9.95;;;;;;;-140.79;100.00;63287.88;5025841;28;20122;-53
2022/01/05 03:45:37;;;;;;;12.55;9.80;;;;;;;-140.79;100.00;63287.88;5025771;28;20132;-53
2022/01/05 03:48:07;;;;;;;12.70;10.07;;;;;;;-140.79;100.00;63287.88;5025646;28;20179;-53
2022/01/05 03:50:32;;;;;;;13.45;9.93;;;;;;;-140.79;100.00;63287.88;5025194;28;20479;-54
2022/01/05 03:52:58;;;;;;;12.63;9.45;;;;;;;-140.79;100.00;63287.88;5024976;28;20116;-53
2022/01/05 03:55:23;;;;;;;12.63;9.63;;;;;;;-140.79;100.00;63287.88;5025312;28;20041;-53
2022/01/05 03:57:49;;;;;;;12.85;9.95;;;;;;;-140.79;100.00;63287.88;5025640;28;20030;-52
2022/01/05 04:00:15;;;;;;;13.70;10.13;;;;;;;-140.79;100.00;63287.88;5025216;28;20036;-53
2022/01/05 04:02:40;;;;;;;13.52;10.35;;;;;;;-140.79;100.00;63287.88;5025002;28;20026;-53
2022/01/05 04:05:06;;;;;;;14.38;10.80;;;;;;;-140.79;100.00;63287.88;5025442;28;20098;-53
2022/01/05 04:07:31;;;;;;;13.65;10.02;;;;;;;-140.79;100.00;63287.88;5025112;28;20121;-54
2022/01/05 04:09:57;;;;;;;13.70;10.20;;;;;;;-140.79;100.00;63287.88;5025057;28;20075;-53
2022/01/05 04:12:22;;;;;;;13.45;9.88;;;;;;;-140.79;100.00;63287.88;5024698;28;20022;-53
2022/01/05 04:14:47;;;;;;;12.48;9.90;;;;;;;-140.79;100.00;63287.88;5025119;28;20037;-53
2022/01/05 04:17:13;;;;;;;11.88;9.70;;;;;;;-140.79;100.00;63287.88;5025087;28;20037;-52
2022/01/05 04:19:38;;;;;;;12.18;9.27;;;;;;;-140.79;100.00;63287.88;5025310;28;20034;-53
2022/01/05 04:22:04;;;;;;;14.15;9.85;;;;;;;-140.79;100.00;63287.88;5024827;28;20022;-52
2022/01/05 04:24:29;;;;;;;13.05;9.90;;;;;;;-140.79;100.00;63287.88;5024961;28;20542;-52
2022/01/05 04:26:55;;;;;;;12.27;9.48;;;;;;;-140.79;100.00;63287.88;5025112;28;20424;-53
2022/01/05 04:29:20;;;;;;;12.77;10.25;;;;;;;-140.79;100.00;63287.88;5040177;28;20045;-52
2022/01/05 04:31:45;;;;;;;11.60;9.07;;;;;;;-140.79;100.00;63287.88;5025063;28;20025;-52
2022/01/05 04:34:11;;;;;;;13.13;10.10;;;;;;;-140.79;100.00;63287.88;5024554;28;20405;-52
2022/01/05 04:36:37;;;;;;;14.05;10.15;;;;;;;-140.79;100.00;63287.88;5024628;28;20025;-53
2022/01/05 04:39:02;;;;;;;11.40;9.02;;;;;;;-140.79;100.00;63287.88;5025230;28;20602;-52
2022/01/05 04:41:28;;;;;;;11.13;8.88;;;;;;;-140.79;100.00;63287.88;5040324;28;20120;-52
2022/01/05 04:43:53;;;;;;;13.35;9.25;;;;;;;-140.79;100.00;63287.88;5024352;28;20033;-53
2022/01/05 04:46:19;;;;;;;12.32;9.48;;;;;;;-140.79;100.00;63287.88;5024229;28;20032;-53
2022/01/05 04:48:44;;;;;;;13.55;10.40;;;;;;;-140.79;100.00;63287.88;5024860;28;20032;-52
2022/01/05 04:51:09;;;;;;;11.73;8.90;;;;;;;-140.79;100.00;63287.88;5024771;28;20029;-51
2022/01/05 04:53:35;;;;;;;11.88;9.70;;;;;;;-140.79;100.00;63287.88;5024356;28;20101;-52
2022/01/05 04:56:00;;;;;;;13.07;9.63;;;;;;;-140.79;100.00;63287.88;5024737;28;20034;-51
2022/01/05 04:58:26;;;;;;;12.55;9.40;;;;;;;-140.79;100.00;63287.88;5024236;28;20103;-53
2022/01/05 05:00:52;;;;;;;13.43;9.55;;;;;;;-140.79;100.00;63287.88;5024662;28;20593;-52
2022/01/05 05:03:17;;;;;;;11.55;8.85;;;;;;;-140.79;100.00;63287.88;5024225;28;20037;-53
2022/01/05 05:05:43;;;;;;;13.73;9.50;;;;;;;-140.79;100.00;63287.88;5024436;28;20045;-51
2022/01/05 05:08:08;;;;;;;12.55;9.55;;;;;;;-140.79;100.00;63287.88;5024509;28;20040;-53
2022/01/05 05:10:33;;;;;;;12.40;9.80;;;;;;;-140.79;100.00;63287.88;5024357;28;20056;-52
2022/01/05 05:12:59;;;;;;;10.65;9.05;;;;;;;-140.79;100.00;63287.88;5024202;28;20064;-53
2022/01/05 05:15:24;;;;;;;12.18;9.18;;;;;;;-140.79;100.00;63287.88;5039678;28;20116;-51
2022/01/05 05:17:50;;;;;;;12.38;9.15;;;;;;;-140.79;100.00;63287.88;5024163;28;20511;-52
2022/01/05 05:20:15;;;;;;;11.77;9.10;;;;;;;-140.79;100.00;63287.88;5024329;28;20036;-52
2022/01/05 05:22:41;;;;;;;12.02;8.85;;;;;;;-140.79;100.00;63287.88;5023508;28;20052;-53
2022/01/05 05:25:06;;;;;;;12.10;8.90;;;;;;;-140.79;100.00;63287.88;5024426;28;20443;-52
2022/01/05 05:27:32;;;;;;;12.68;9.15;;;;;;;-140.79;100.00;63287.88;5024208;28;20472;-52
2022/01/05 05:29:57;;;;;;;12.82;8.73;;;;;;;-140.79;100.00;63287.88;5024196;28;20123;-53
2022/01/05 05:32:23;;;;;;;12.32;9.55;;;;;;;-140.79;100.00;63287.88;5022474;28;20025;-51
2022/01/05 05:34:48;;;;;;;11.75;8.75;;;;;;;-140.79;100.00;63287.88;5024215;28;20041;-53
2022/01/05 05:37:16;;;;;;;11.38;8.77;;;;;;;-140.79;100.00;63287.88;5024223;28;20048;-52
2022/01/05 05:39:42;;;;;;;12.20;9.50;;;;;;;-140.79;100.00;63287.88;5024123;28;20126;-53
2022/01/05 05:42:08;;;;;;;11.93;9.00;;;;;;;-140.79;100.00;63287.88;5024412;28;20033;-54
2022/01/05 05:44:33;;;;;;;10.65;8.52;;;;;;;-140.79;100.00;63287.88;5023756;28;20804;-54
2022/01/05 05:46:59;;;;;;;10.63;8.30;;;;;;;-140.79;100.00;63287.88;5024018;28;20038;-52
2022/01/05 05:49:24;;;;;;;11.40;9.00;;;;;;;-140.79;100.00;63287.88;5024212;28;20025;-52
2022/01/05 05:51:50;;;;;;;10.65;8.77;;;;;;;-140.79;100.00;63287.88;5024077;28;20053;-51
2022/01/05 05:54:15;;;;;;;12.23;8.85;;;;;;;-140.79;100.00;63287.88;5026894;28;20061;-52
2022/01/05 05:56:41;;;;;;;10.68;8.25;;;;;;;-140.79;100.00;63287.88;5027660;28;20037;-52
2022/01/05 05:59:06;;;;;;;10.93;8.30;;;;;;;-140.79;100.00;63287.88;5019854;28;20570;-52
2022/01/05 06:01:32;;;;;;;11.07;8.60;;;;;;;-140.79;100.00;63287.88;5028018;28;20456;-52
2022/01/05 06:03:57;;;;;;;12.60;9.05;;;;;;;-140.79;100.00;63287.88;5027636;28;20041;-52
2022/01/05 06:06:22;;;;;;;11.00;8.48;;;;;;;-140.79;100.00;63287.88;5011012;28;20038;-52
2022/01/05 06:08:48;;;;;;;10.35;8.13;;;;;;;-140.79;100.00;63287.88;5027612;28;20034;-52
2022/01/05 06:11:13;;;;;;;12.45;8.52;;;;;;;-140.79;100.00;63287.88;5027640;28;20036;-52
2022/01/05 06:13:39;;;;;;;10.18;7.90;;;;;;;-140.79;100.00;63287.88;5027192;28;20021;-52
2022/01/05 06:16:04;;;;;;;10.52;7.82;;;;;;;-140.79;100.00;63287.88;5027545;28;20025;-51
2022/01/05 06:18:29;;;;;;;11.60;8.07;;;;;;;-140.79;100.00;63287.88;5027039;28;20045;-54
2022/01/05 06:20:55;;;;;;;10.93;8.23;;;;;;;-140.79;100.00;63287.88;5027360;28;20030;-52
2022/01/05 06:23:20;;;;;;;10.25;7.75;;;;;;;-140.79;100.00;63287.88;5024672;28;20053;-54
2022/01/05 06:25:46;;;;;;;10.32;7.72;;;;;;;-140.79;100.00;63287.88;5019549;28;20033;-55
2022/01/05 06:28:11;;;;;;;10.88;7.45;;;;;;;-140.79;100.00;63287.88;5022563;28;20099;-55
2022/01/05 06:30:40;;;;;;;9.70;7.60;;;;;;;-140.79;100.00;63287.88;5022092;28;20026;-55
2022/01/05 06:33:06;;;;;;;10.57;7.38;;;;;;;-140.79;100.00;63287.88;5015684;28;20504;-54
2022/01/05 06:35:31;;;;;;;8.80;7.15;;;;;;;-140.79;100.00;63287.88;5018158;28;20029;-54
2022/01/05 06:37:57;;;;;;;9.52;7.60;;;;;;;-140.79;100.00;63287.88;5026518;28;20022;-55
2022/01/05 06:40:23;;;;;;;10.63;7.60;;;;;;;-140.79;100.00;63287.88;5026639;28;20021;-54
2022/01/05 06:42:48;;;;;;;9.20;7.32;;;;;;;-140.79;100.00;63287.88;5026281;28;20029;-53
2022/01/05 06:45:14;;;;;;;11.52;7.57;;;;;;;-140.79;100.00;63287.88;5026367;28;20036;-53
2022/01/05 06:47:39;;;;;;;10.50;7.65;;;;;;;-140.79;100.00;63287.88;5026257;28;20709;-53
2022/01/05 06:50:05;;;;;;;10.27;7.40;;;;;;;-140.79;100.00;63287.88;5026170;28;20037;-53
2022/01/05 06:52:30;;;;;;;8.90;7.18;;;;;;;-140.79;100.00;63287.88;5025820;28;20040;-55
2022/01/05 06:54:56;;;;;;;10.20;7.10;;;;;;;-140.79;100.00;63287.88;5026182;28;20040;-54
2022/01/05 06:57:21;;;;;;;9.25;7.25;;;;;;;-140.79;100.00;63287.88;5026379;28;20029;-54
2022/01/05 06:59:47;;;;;;;9.60;7.25;;;;;;;-140.79;100.00;63287.88;5025803;28;20487;-54
2022/01/05 07:02:13;;;;;;;9.60;7.40;;;;;;;-140.79;100.00;63287.88;5025288;28;20506;-54
2022/01/05 07:04:38;;;;;;;8.73;6.90;;;;;;;-140.79;100.00;63287.88;5024401;28;20034;-54
2022/01/05 07:07:04;;;;;;;9.40;7.13;;;;;;;-140.79;100.00;63287.88;5022241;28;20025;-54
2022/01/05 07:09:29;;;;;;;10.48;6.85;;;;;;;-140.79;100.00;63287.88;4999295;28;20096;-54
2022/01/05 07:11:55;;;;;;;10.40;7.65;;;;;;;-140.79;100.00;63287.88;5026138;28;20021;-52
2022/01/05 07:14:20;;;;;;;9.85;7.55;;;;;;;-140.79;100.00;63287.88;5026391;28;20025;-54
2022/01/05 07:16:45;;;;;;;8.68;6.72;;;;;;;-140.79;100.00;63287.88;5026345;28;20017;-54
2022/01/05 07:19:11;;;;;;;9.43;7.22;;;;;;;-140.79;100.00;63287.88;5026178;28;20034;-54
2022/01/05 07:21:36;;;;;;;9.45;7.10;;;;;;;-140.79;100.00;63287.88;5026171;28;20405;-56
2022/01/05 07:24:02;;;;;;;8.48;6.93;;;;;;;-140.79;100.00;63287.88;5022888;28;20045;-54
2022/01/05 07:26:27;;;;;;;9.07;6.78;;;;;;;-140.79;100.00;63287.88;5025242;28;20028;-53
2022/01/05 07:28:54;;;;;;;9.20;6.88;;;;;;;-140.79;100.00;63287.88;5016962;28;20116;-54
2022/01/05 07:31:19;;;;;;;8.45;6.50;;;;;;;-140.79;100.00;63287.88;5006534;28;20029;-54
2022/01/05 07:33:45;;;;;;;8.82;6.80;;;;;;;-140.79;100.00;63287.88;5006523;28;20041;-53
2022/01/05 07:36:11;;;;;;;8.65;6.68;;;;;;;-140.79;100.00;63287.88;5006600;28;20280;-54
2022/01/05 07:38:37;;;;;;;7.95;7.10;;;;;;;-140.79;100.00;63287.88;5006839;28;20029;-54
2022/01/05 07:41:02;;;;;;;9.23;7.20;;;;;;;-140.79;100.00;63287.88;5011363;28;20025;-52
2022/01/05 07:43:27;;;;;;;8.55;6.90;;;;;;;-140.79;100.00;63287.88;5025695;28;20562;-52
2022/01/05 07:45:54;;;;;;;8.82;6.95;;;;;;;-140.79;100.00;63287.88;5023754;28;20099;-55
2022/01/05 07:48:19;;;;;;;10.38;7.10;;;;;;;-140.79;100.00;63287.88;5021435;28;20542;-55
2022/01/05 07:50:45;;;;;;;10.27;7.15;;;;;;;-140.79;100.00;63287.88;5022987;28;20065;-54
2022/01/05 07:53:10;;;;;;;10.52;6.85;;;;;;;-140.79;100.00;63287.88;5054911;28;20037;-52
2022/01/05 07:55:37;;;;;;;10.10;6.82;;;;;;;-140.79;100.00;63287.88;5024624;28;20033;-55
2022/01/05 07:58:02;;;;;;;9.57;6.80;;;;;;;-140.79;100.00;63287.88;5024887;28;20029;-53
2022/01/05 08:00:28;;;;;;;9.27;6.95;;;;;;;-140.79;100.00;63287.88;5024561;28;20068;-54
2022/01/05 08:02:53;;;;;;;11.35;7.38;;;;;;;-140.79;100.00;63287.88;5025327;28;20103;-52
2022/01/05 08:05:19;;;;;;;9.05;7.10;;;;;;;-140.79;100.00;63287.88;5025322;28;20490;-54
2022/01/05 08:07:45;;;;;;;9.18;6.63;;;;;;;-140.79;100.00;63287.88;5025109;28;20033;-54
2022/01/05 08:10:10;;;;;;;10.48;6.82;;;;;;;-140.79;100.00;63287.88;5025362;28;20528;-54
2022/01/05 08:12:36;;;;;;;8.85;6.43;;;;;;;-140.79;100.00;63287.88;5022927;28;20041;-54
2022/01/05 08:15:01;;;;;;;9.80;6.47;;;;;;;-140.79;100.00;63287.88;5024677;28;20044;-54
2022/01/05 08:17:26;;;;;;;9.32;7.13;;;;;;;-140.79;100.00;63287.88;5024722;28;20029;-54
2022/01/05 08:19:52;;;;;;;8.75;6.63;;;;;;;-140.79;100.00;63287.88;5024749;28;20049;-54
2022/01/05 08:22:18;;;;;;;10.15;7.25;;;;;;;-140.79;100.00;63287.88;5024930;28;20045;-54
2022/01/05 08:24:43;;;;;;;11.65;7.45;;;;;;;-140.79;100.00;63287.88;5024565;28;20757;-53
2022/01/05 08:27:09;;;;;;;9.57;7.05;;;;;;;-140.79;100.00;63287.88;5024958;28;20074;-54
2022/01/05 08:29:34;;;;;;;8.65;6.55;;;;;;;-140.79;100.00;63287.88;5025297;28;20037;-54
2022/01/05 08:32:02;;;;;;;10.00;7.32;;;;;;;-140.79;100.00;63287.88;5024743;28;20034;-55
2022/01/05 08:34:29;;;;;;;8.52;7.13;;;;;;;-140.79;100.00;63287.88;5024542;28;20587;-53
2022/01/05 08:36:55;;;;;;;10.95;7.45;;;;;;;-140.79;100.00;63287.88;5025286;28;20029;-54
2022/01/05 08:39:22;;;;;;;10.25;7.40;;;;;;;-140.79;100.00;63287.88;5024705;28;20078;-54
2022/01/05 08:41:48;;;;;;;9.80;6.97;;;;;;;-140.79;100.00;63287.88;5011291;28;20030;-54
2022/01/05 08:44:13;;;;;;;11.68;7.63;;;;;;;-140.79;100.00;63287.88;5007555;28;20017;-53
2022/01/05 08:46:39;;;;;;;9.90;7.78;;;;;;;-140.79;100.00;63287.88;5017521;28;20041;-53
2022/01/05 08:49:04;;;;;;;10.05;6.93;;;;;;;-140.79;100.00;63287.88;5006706;28;20030;-54
2022/01/05 08:51:29;;;;;;;10.02;7.18;;;;;;;-140.79;100.00;63287.88;5012522;28;20501;-54
2022/01/05 08:53:55;;;;;;;8.65;7.43;;;;;;;-140.79;100.00;63287.88;5005936;28;20389;-54
2022/01/05 08:56:23;;;;;;;10.75;7.28;;;;;;;-140.79;100.00;63287.88;5005020;28;20499;-53
2022/01/05 08:58:49;;;;;;;9.95;7.80;;;;;;;-140.79;100.00;63287.88;5010846;28;20025;-54
2022/01/05 09:01:15;;;;;;;9.48;7.55;;;;;;;-140.79;100.00;63287.88;5009309;28;20055;-53
2022/01/05 09:03:40;;;;;;;10.70;7.78;;;;;;;-140.79;100.00;63287.88;5014895;28;20030;-54
2022/01/05 09:06:07;;;;;;;9.65;7.20;;;;;;;-140.79;100.00;63287.88;5019661;28;20018;-54
2022/01/05 09:08:33;;;;;;;11.02;7.47;;;;;;;-140.79;100.00;63287.88;5007846;28;20045;-54
2022/01/05 09:10:59;;;;;;;9.85;7.35;;;;;;;-140.79;100.00;63287.88;5011843;28;20066;-54
2022/01/05 09:13:24;;;;;;;9.70;7.10;;;;;;;-140.79;100.00;63287.88;5018459;28;20030;-56
2022/01/05 09:15:50;;;;;;;9.65;7.22;;;;;;;-140.79;100.00;63287.88;5023978;28;20084;-54
2022/01/05 09:18:15;;;;;;;10.73;7.47;;;;;;;-140.79;100.00;63287.88;5023935;28;20041;-54
2022/01/05 09:20:41;;;;;;;9.68;7.35;;;;;;;-140.79;100.00;63287.88;5024089;28;20482;-54
2022/01/05 09:23:06;;;;;;;9.27;6.95;;;;;;;-140.79;100.00;63287.88;5022986;28;20578;-54
2022/01/05 09:25:32;;;;;;;11.55;7.35;;;;;;;-140.79;100.00;63287.88;5024352;28;20041;-54
2022/01/05 09:27:57;;;;;;;10.25;7.05;;;;;;;-140.79;100.00;63287.88;5023700;28;20037;-54
2022/01/05 09:30:23;;;;;;;9.82;7.10;;;;;;;-140.79;100.00;63287.88;5024378;28;20051;-55
2022/01/05 09:32:48;;;;;;;9.43;6.90;;;;;;;-140.79;100.00;63287.88;5022509;28;20680;-54
2022/01/05 09:35:17;;;;;;;8.88;7.30;;;;;;;-140.79;100.00;63287.88;5024038;28;20587;-54
2022/01/05 09:43:18;;;;;;;9.68;6.60;;;;;;;-140.79;100.00;63287.88;5024011;28;20040;-54
2022/01/05 09:45:52;;;;;;;8.52;6.65;;;;;;;-140.79;100.00;63287.88;5023968;28;20045;-54
2022/01/05 09:48:28;;;;;;;9.25;7.43;;;;;;;-140.79;100.00;63287.88;5024178;28;20034;-53
2022/01/05 09:51:02;;;;;;;11.43;7.53;;;;;;;-140.79;100.00;63287.88;5024040;28;20108;-54
2022/01/05 09:53:28;;;;;;;10.80;7.22;;;;;;;-140.79;100.00;63287.88;5024112;28;20025;-54
2022/01/05 09:55:54;;;;;;;11.20;8.05;;;;;;;-140.79;100.00;63287.88;5022843;28;20064;-54
2022/01/05 09:58:20;;;;;;;9.30;7.20;;;;;;;-140.79;100.00;63287.88;5024161;28;20496;-54
2022/01/05 10:00:46;;;;;;;8.98;7.32;;;;;;;-140.79;100.00;63287.88;5023881;28;20033;-54
2022/01/05 10:03:14;;;;;;;9.68;7.50;;;;;;;-140.79;100.00;63287.88;5023471;28;20032;-52
2022/01/05 10:05:40;;;;;;;9.52;6.95;;;;;;;-140.79;100.00;63287.88;5023829;28;20053;-50
2022/01/05 10:08:05;;;;;;;9.68;7.07;;;;;;;-140.79;100.00;63287.88;5023692;28;20044;-54
2022/01/05 10:10:31;;;;;;;9.55;7.40;;;;;;;-140.79;100.00;63287.88;5022286;28;20482;-54
2022/01/05 10:12:56;;;;;;;10.48;7.07;;;;;;;-140.79;100.00;63287.88;5024098;28;20455;-53
2022/01/05 10:15:22;;;;;;;10.27;7.82;;;;;;;-140.79;100.00;63287.88;5022675;28;20037;-60
2022/01/05 10:17:47;;;;;;;10.85;7.28;;;;;;;-140.79;100.00;63287.88;5022645;28;20515;-54
2022/01/05 10:20:13;;;;;;;8.98;6.90;;;;;;;-140.79;100.00;63287.88;5023949;28;20069;-54
2022/01/05 10:22:39;;;;;;;9.98;7.03;;;;;;;-140.79;100.00;63287.88;5023123;28;20046;-55
2022/01/05 10:25:14;;;;;;;10.23;7.03;;;;;;;-140.79;100.00;63287.88;5023600;28;20056;-55
2022/01/05 10:27:39;;;;;;;8.23;6.88;;;;;;;-140.79;100.00;63287.88;5023954;28;20069;-55
2022/01/05 10:30:07;;;;;;;9.93;7.38;;;;;;;-140.79;100.00;63287.88;5023901;28;20576;-54
2022/01/05 10:32:33;;;;;;;9.63;7.10;;;;;;;-140.79;100.00;63287.88;5038745;28;20034;-54
2022/01/05 10:35:11;;;;;;;10.05;6.65;;;;;;;-140.79;100.00;63287.88;5022455;28;20036;-52
2022/01/05 10:37:40;;;;;;;8.82;6.80;;;;;;;-140.79;100.00;63287.88;5023386;28;20617;-55
2022/01/05 10:40:19;;;;;;;9.48;6.75;;;;;;;-140.79;100.00;63287.88;5012528;28;20029;-54
2022/01/05 10:42:55;;;;;;;10.38;7.35;;;;;;;-140.79;100.00;63287.88;5012231;28;20049;-54
2022/01/05 10:45:44;;;;;;;10.05;6.65;;;;;;;-140.79;100.00;63287.88;5006603;28;20721;-55
2022/01/05 10:48:17;;;;;;;9.37;6.70;;;;;;;-140.79;100.00;63287.88;5019841;28;20030;-55
2022/01/05 10:50:43;;;;;;;10.43;6.85;;;;;;;-140.79;100.00;63287.88;5013747;28;20068;-55
2022/01/05 10:53:09;;;;;;;9.45;6.82;;;;;;;-140.79;100.00;63287.88;5017041;28;20021;-54
2022/01/05 10:55:42;;;;;;;9.88;6.95;;;;;;;-140.79;100.00;63287.88;5057869;28;20040;-52
2022/01/05 10:58:12;;;;;;;7.80;6.43;;;;;;;-140.79;100.00;63287.88;5026357;28;20083;-55
2022/01/05 11:00:37;;;;;;;9.23;6.80;;;;;;;-140.79;100.00;63287.88;5026025;28;20487;-52